CP2737 SLCB-SLCB
Flight info
| Callsign | CP2737 |
|---|---|
| Flight time | 0h 33m |
| Altitude | 10000 |
| Route | SLCB TO SLCB TAG |
| Aircraft | C172/L-N/3224 |
Departure
| Time | 2026-04-27 01:08 |
|---|---|
| Airport | Jorge Wilsterman International Airport (SLCB) |
Arrival
| Time | 2026-04-27 01:42 |
|---|---|
| Airport | Jorge Wilsterman International Airport (SLCB) |
| Time | Latitude | Longitude | Altitude | Speed | Heading |
|---|---|---|---|---|---|
| 2026-04-27 00:49 | -17.41558 | -66.17159 | 8361 ft | 0 kts | 115° |
| 2026-04-27 00:57 | -17.41564 | -66.17152 | 8361 ft | 2 kts | 170° |
| 2026-04-27 00:57 | -17.41579 | -66.17178 | 8361 ft | 2 kts | 297° |
| 2026-04-27 00:57 | -17.41578 | -66.17178 | 8361 ft | 0 kts | 299° |
| 2026-04-27 00:58 | -17.41566 | -66.17200 | 8361 ft | 10 kts | 303° |
| 2026-04-27 00:59 | -17.41511 | -66.17228 | 8362 ft | 10 kts | 25° |
| 2026-04-27 00:59 | -17.41452 | -66.17186 | 8363 ft | 12 kts | 37° |
| 2026-04-27 00:59 | -17.41378 | -66.17129 | 8365 ft | 12 kts | 35° |
| 2026-04-27 00:59 | -17.41306 | -66.17116 | 8365 ft | 10 kts | 348° |
| 2026-04-27 01:00 | -17.41247 | -66.17139 | 8363 ft | 9 kts | 337° |
| 2026-04-27 01:00 | -17.41193 | -66.17163 | 8363 ft | 9 kts | 340° |
| 2026-04-27 01:00 | -17.41136 | -66.17141 | 8363 ft | 9 kts | 41° |
| 2026-04-27 01:00 | -17.41105 | -66.17086 | 8364 ft | 8 kts | 80° |
| 2026-04-27 01:01 | -17.41103 | -66.17070 | 8364 ft | 0 kts | 82° |
| 2026-04-27 01:05 | -17.41098 | -66.17031 | 8364 ft | 12 kts | 78° |
| 2026-04-27 01:05 | -17.41080 | -66.16946 | 8365 ft | 12 kts | 83° |
| 2026-04-27 01:06 | -17.41112 | -66.16916 | 8366 ft | 0 kts | 218° |
| 2026-04-27 01:06 | -17.41172 | -66.16965 | 8366 ft | 28 kts | 217° |
| 2026-04-27 01:06 | -17.41416 | -66.17159 | 8364 ft | 59 kts | 217° |
| 2026-04-27 01:07 | -17.41812 | -66.17479 | 8376 ft | 80 kts | 218° |
| 2026-04-27 01:07 | -17.42267 | -66.17834 | 8458 ft | 83 kts | 218° |
| 2026-04-27 01:07 | -17.42736 | -66.18205 | 8543 ft | 85 kts | 219° |
| 2026-04-27 01:07 | -17.43201 | -66.18556 | 8687 ft | 80 kts | 218° |
| 2026-04-27 01:08 | -17.43645 | -66.18908 | 8795 ft | 80 kts | 218° |
| 2026-04-27 01:08 | -17.44188 | -66.19081 | 8861 ft | 90 kts | 167° |
| 2026-04-27 01:08 | -17.44643 | -66.18638 | 8932 ft | 95 kts | 128° |
| 2026-04-27 01:08 | -17.45062 | -66.18091 | 8984 ft | 97 kts | 131° |
| 2026-04-27 01:09 | -17.45476 | -66.17531 | 9099 ft | 98 kts | 129° |
| 2026-04-27 01:09 | -17.45674 | -66.16867 | 9225 ft | 98 kts | 77° |
| 2026-04-27 01:09 | -17.45271 | -66.16319 | 9302 ft | 100 kts | 27° |
| 2026-04-27 01:09 | -17.44644 | -66.15945 | 9393 ft | 105 kts | 27° |
| 2026-04-27 01:10 | -17.44014 | -66.15564 | 9496 ft | 107 kts | 27° |
| 2026-04-27 01:10 | -17.43337 | -66.15196 | 9502 ft | 114 kts | 24° |
| 2026-04-27 01:10 | -17.42649 | -66.14804 | 9535 ft | 111 kts | 24° |
| 2026-04-27 01:10 | -17.41963 | -66.14424 | 9524 ft | 112 kts | 28° |
| 2026-04-27 01:11 | -17.41301 | -66.14015 | 9481 ft | 104 kts | 28° |
| 2026-04-27 01:11 | -17.40695 | -66.13676 | 9326 ft | 98 kts | 22° |
| 2026-04-27 01:11 | -17.40089 | -66.13706 | 9186 ft | 88 kts | 321° |
| 2026-04-27 01:11 | -17.39682 | -66.14203 | 9027 ft | 90 kts | 306° |
| 2026-04-27 01:12 | -17.39340 | -66.14708 | 8929 ft | 81 kts | 302° |
| 2026-04-27 01:12 | -17.39279 | -66.15260 | 8772 ft | 81 kts | 243° |
| 2026-04-27 01:12 | -17.39627 | -66.15718 | 8653 ft | 81 kts | 221° |
| 2026-04-27 01:12 | -17.40058 | -66.16075 | 8665 ft | 74 kts | 218° |
| 2026-04-27 01:13 | -17.40479 | -66.16410 | 8613 ft | 81 kts | 221° |
| 2026-04-27 01:13 | -17.40937 | -66.16770 | 8460 ft | 79 kts | 220° |
| 2026-04-27 01:13 | -17.41332 | -66.17092 | 8365 ft | 63 kts | 217° |
| 2026-04-27 01:13 | -17.41665 | -66.17358 | 8359 ft | 68 kts | 217° |
| 2026-04-27 01:14 | -17.42093 | -66.17693 | 8390 ft | 82 kts | 218° |
| 2026-04-27 01:14 | -17.42570 | -66.18072 | 8421 ft | 90 kts | 220° |
| 2026-04-27 01:14 | -17.43070 | -66.18475 | 8514 ft | 90 kts | 219° |
| 2026-04-27 01:14 | -17.43566 | -66.18876 | 8616 ft | 89 kts | 218° |
| 2026-04-27 01:15 | -17.44060 | -66.19235 | 8734 ft | 87 kts | 213° |
| 2026-04-27 01:15 | -17.44497 | -66.19649 | 8789 ft | 89 kts | 251° |
| 2026-04-27 01:15 | -17.44413 | -66.20266 | 8858 ft | 91 kts | 306° |
| 2026-04-27 01:15 | -17.43990 | -66.20756 | 8959 ft | 91 kts | 310° |
| 2026-04-27 01:16 | -17.43550 | -66.21256 | 9072 ft | 95 kts | 308° |
| 2026-04-27 01:16 | -17.43097 | -66.21755 | 9128 ft | 97 kts | 315° |
| 2026-04-27 01:16 | -17.42467 | -66.21910 | 9241 ft | 99 kts | 8° |
| 2026-04-27 01:16 | -17.41856 | -66.21524 | 9298 ft | 107 kts | 44° |
| 2026-04-27 01:17 | -17.41360 | -66.20942 | 9476 ft | 105 kts | 46° |
| 2026-04-27 01:17 | -17.40824 | -66.20387 | 9573 ft | 111 kts | 40° |
| 2026-04-27 01:17 | -17.40222 | -66.19843 | 9621 ft | 117 kts | 38° |
| 2026-04-27 01:17 | -17.39586 | -66.19253 | 9587 ft | 124 kts | 38° |
| 2026-04-27 01:18 | -17.38943 | -66.18658 | 9626 ft | 125 kts | 38° |
| 2026-04-27 01:18 | -17.38279 | -66.18093 | 9642 ft | 122 kts | 34° |
| 2026-04-27 01:18 | -17.37599 | -66.17592 | 9541 ft | 117 kts | 31° |
| 2026-04-27 01:18 | -17.37147 | -66.16965 | 9482 ft | 106 kts | 80° |
| 2026-04-27 01:19 | -17.37369 | -66.16274 | 9335 ft | 101 kts | 134° |
| 2026-04-27 01:19 | -17.37836 | -66.15750 | 9219 ft | 96 kts | 135° |
| 2026-04-27 01:19 | -17.38267 | -66.15269 | 9102 ft | 88 kts | 140° |
| 2026-04-27 01:19 | -17.38804 | -66.15132 | 8967 ft | 80 kts | 199° |
| 2026-04-27 01:20 | -17.39273 | -66.15419 | 8826 ft | 79 kts | 220° |
| 2026-04-27 01:20 | -17.39700 | -66.15766 | 8722 ft | 76 kts | 219° |
| 2026-04-27 01:20 | -17.40111 | -66.16110 | 8633 ft | 75 kts | 217° |
| 2026-04-27 01:20 | -17.40526 | -66.16438 | 8538 ft | 76 kts | 219° |
| 2026-04-27 01:21 | -17.40940 | -66.16768 | 8454 ft | 73 kts | 222° |
| 2026-04-27 01:21 | -17.41311 | -66.17068 | 8368 ft | 59 kts | 220° |
| 2026-04-27 01:21 | -17.41596 | -66.17305 | 8361 ft | 55 kts | 217° |
| 2026-04-27 01:21 | -17.41977 | -66.17605 | 8369 ft | 78 kts | 216° |
| 2026-04-27 01:22 | -17.42424 | -66.17957 | 8438 ft | 83 kts | 218° |
| 2026-04-27 01:22 | -17.42886 | -66.18328 | 8534 ft | 84 kts | 218° |
| 2026-04-27 01:22 | -17.43193 | -66.18564 | 8608 ft | 83 kts | 218° |
| 2026-04-27 01:22 | -17.43673 | -66.18913 | 8701 ft | 84 kts | 218° |
| 2026-04-27 01:23 | -17.44137 | -66.19288 | 8802 ft | 85 kts | 219° |
| 2026-04-27 01:23 | -17.44618 | -66.19659 | 8847 ft | 91 kts | 205° |
| 2026-04-27 01:23 | -17.45206 | -66.19524 | 8901 ft | 100 kts | 124° |
| 2026-04-27 01:23 | -17.45501 | -66.18618 | 9012 ft | 97 kts | 124° |
| 2026-04-27 01:24 | -17.45750 | -66.18212 | 9060 ft | 100 kts | 123° |
| 2026-04-27 01:24 | -17.46106 | -66.17575 | 9118 ft | 104 kts | 118° |
| 2026-04-27 01:24 | -17.46109 | -66.16845 | 9187 ft | 107 kts | 58° |
| 2026-04-27 01:24 | -17.45533 | -66.16408 | 9317 ft | 102 kts | 26° |
| 2026-04-27 01:25 | -17.44916 | -66.16040 | 9425 ft | 104 kts | 25° |
| 2026-04-27 01:25 | -17.44269 | -66.15683 | 9520 ft | 107 kts | 22° |
| 2026-04-27 01:25 | -17.43602 | -66.15319 | 9609 ft | 108 kts | 27° |
| 2026-04-27 01:25 | -17.42966 | -66.14932 | 9619 ft | 105 kts | 26° |
| 2026-04-27 01:26 | -17.42341 | -66.14555 | 9684 ft | 98 kts | 26° |
| 2026-04-27 01:26 | -17.41720 | -66.14208 | 9612 ft | 104 kts | 23° |
| 2026-04-27 01:26 | -17.41112 | -66.13874 | 9570 ft | 96 kts | 27° |
| 2026-04-27 01:26 | -17.40525 | -66.13671 | 9459 ft | 85 kts | 349° |
| 2026-04-27 01:27 | -17.40053 | -66.13978 | 9287 ft | 81 kts | 309° |
| 2026-04-27 01:27 | -17.39695 | -66.14397 | 9208 ft | 76 kts | 307° |
| 2026-04-27 01:27 | -17.39371 | -66.14823 | 9155 ft | 75 kts | 292° |
| 2026-04-27 01:27 | -17.39451 | -66.15365 | 8977 ft | 80 kts | 245° |
| 2026-04-27 01:28 | -17.39782 | -66.15824 | 8833 ft | 79 kts | 225° |
| 2026-04-27 01:28 | -17.40178 | -66.16182 | 8721 ft | 73 kts | 213° |
| 2026-04-27 01:28 | -17.40579 | -66.16484 | 8615 ft | 70 kts | 220° |
| 2026-04-27 01:28 | -17.40945 | -66.16783 | 8457 ft | 63 kts | 220° |
| 2026-04-27 01:29 | -17.41264 | -66.17036 | 8365 ft | 52 kts | 219° |
| 2026-04-27 01:29 | -17.41580 | -66.17289 | 8361 ft | 70 kts | 217° |
| 2026-04-27 01:29 | -17.42018 | -66.17632 | 8402 ft | 82 kts | 217° |
| 2026-04-27 01:29 | -17.42471 | -66.17992 | 8514 ft | 81 kts | 219° |
| 2026-04-27 01:30 | -17.42925 | -66.18346 | 8631 ft | 80 kts | 217° |
| 2026-04-27 01:30 | -17.43208 | -66.18551 | 8679 ft | 83 kts | 214° |
| 2026-04-27 01:35 | -17.43363 | -66.18653 | 8752 ft | 78 kts | 216° |
| 2026-04-27 01:35 | -17.43611 | -66.19099 | 8814 ft | 80 kts | 281° |
| 2026-04-27 01:35 | -17.43406 | -66.19625 | 8931 ft | 79 kts | 296° |
| 2026-04-27 01:35 | -17.43022 | -66.20089 | 8987 ft | 82 kts | 307° |
| 2026-04-27 01:36 | -17.42499 | -66.20223 | 9012 ft | 94 kts | 21° |
| 2026-04-27 01:36 | -17.41975 | -66.19774 | 9069 ft | 102 kts | 41° |
| 2026-04-27 01:36 | -17.41465 | -66.19268 | 9139 ft | 102 kts | 39° |
| 2026-04-27 01:36 | -17.40973 | -66.18711 | 9073 ft | 115 kts | 82° |
| 2026-04-27 01:37 | -17.41420 | -66.18432 | 9310 ft | 79 kts | 223° |
| 2026-04-27 01:37 | -17.41863 | -66.18240 | 9048 ft | 111 kts | 64° |
| 2026-04-27 01:37 | -17.41730 | -66.17716 | 9213 ft | 86 kts | 157° |
| 2026-04-27 01:37 | -17.42259 | -66.17872 | 9181 ft | 89 kts | 169° |
| 2026-04-27 01:38 | -17.42203 | -66.17287 | 9162 ft | 88 kts | 67° |
| 2026-04-27 01:38 | -17.42592 | -66.17193 | 9015 ft | 92 kts | 234° |
| 2026-04-27 01:38 | -17.42823 | -66.16860 | 8970 ft | 97 kts | 36° |
| 2026-04-27 01:38 | -17.42935 | -66.16489 | 9052 ft | 80 kts | 198° |
| 2026-04-27 01:39 | -17.43401 | -66.16866 | 9017 ft | 92 kts | 223° |
| 2026-04-27 01:39 | -17.43463 | -66.17426 | 9074 ft | 90 kts | 319° |
| 2026-04-27 01:39 | -17.42793 | -66.17562 | 8961 ft | 110 kts | 349° |
| 2026-04-27 01:39 | -17.42012 | -66.17654 | 8978 ft | 112 kts | 351° |
| 2026-04-27 01:40 | -17.41296 | -66.17868 | 9059 ft | 103 kts | 306° |
| 2026-04-27 01:40 | -17.41616 | -66.18309 | 9037 ft | 115 kts | 162° |
| 2026-04-27 01:40 | -17.42040 | -66.17572 | 8973 ft | 123 kts | 106° |
| 2026-04-27 01:40 | -17.42250 | -66.16750 | 9098 ft | 112 kts | 108° |
| 2026-04-27 01:41 | -17.42788 | -66.16625 | 9137 ft | 97 kts | 249° |
| 2026-04-27 01:41 | -17.42505 | -66.17220 | 9100 ft | 88 kts | 304° |
| 2026-04-27 01:41 | -17.42073 | -66.17715 | 8668 ft | 109 kts | 308° |
| 2026-04-27 01:41 | -17.41568 | -66.18338 | 8369 ft | 101 kts | 311° |
| 2026-04-27 01:42 | -17.41171 | -66.18803 | 8359 ft | 61 kts | 312° |
| 2026-04-27 01:42 | -17.40984 | -66.19020 | 8358 ft | 33 kts | 308° |
| 2026-04-27 01:42 | -17.40942 | -66.19114 | 8359 ft | 12 kts | 115° |
| 2026-04-27 01:42 | -17.41021 | -66.18974 | 8358 ft | 39 kts | 132° |
| 2026-04-27 01:43 | -17.41272 | -66.18687 | 8359 ft | 68 kts | 132° |
| 2026-04-27 01:43 | -17.41634 | -66.18259 | 8386 ft | 85 kts | 132° |
| 2026-04-27 01:43 | -17.42032 | -66.17791 | 8476 ft | 87 kts | 133° |
| 2026-04-27 01:43 | -17.42443 | -66.17313 | 8565 ft | 89 kts | 132° |
| 2026-04-27 01:44 | -17.42854 | -66.16855 | 8710 ft | 85 kts | 134° |
| 2026-04-27 01:44 | -17.43250 | -66.16403 | 8836 ft | 85 kts | 131° |
| 2026-04-27 01:44 | -17.43404 | -66.15848 | 8964 ft | 85 kts | 69° |
| 2026-04-27 01:44 | -17.42979 | -66.15444 | 9026 ft | 87 kts | 29° |
| 2026-04-27 01:45 | -17.42460 | -66.15070 | 9137 ft | 93 kts | 30° |
| 2026-04-27 01:45 | -17.41920 | -66.14673 | 9247 ft | 96 kts | 31° |
| 2026-04-27 01:45 | -17.41377 | -66.14279 | 9411 ft | 89 kts | 29° |
| 2026-04-27 01:45 | -17.40861 | -66.13934 | 9298 ft | 88 kts | 26° |
| 2026-04-27 01:46 | -17.40301 | -66.13910 | 9298 ft | 85 kts | 324° |
| 2026-04-27 01:46 | -17.39904 | -66.14338 | 9344 ft | 81 kts | 308° |
| 2026-04-27 01:46 | -17.39546 | -66.14787 | 9352 ft | 75 kts | 305° |
| 2026-04-27 01:46 | -17.39305 | -66.15236 | 9297 ft | 72 kts | 265° |
| 2026-04-27 01:47 | -17.39603 | -66.15681 | 9119 ft | 82 kts | 225° |
| 2026-04-27 01:47 | -17.40048 | -66.16064 | 8973 ft | 82 kts | 220° |
| 2026-04-27 01:47 | -17.40485 | -66.16415 | 8769 ft | 78 kts | 219° |
| 2026-04-27 01:47 | -17.40907 | -66.16748 | 8517 ft | 74 kts | 220° |
| 2026-04-27 01:48 | -17.41282 | -66.17054 | 8369 ft | 59 kts | 218° |
| 2026-04-27 01:48 | -17.41530 | -66.17253 | 8361 ft | 22 kts | 217° |
| 2026-04-27 01:48 | -17.41579 | -66.17298 | 8361 ft | 4 kts | 137° |
| 2026-04-27 01:48 | -17.41557 | -66.17265 | 8361 ft | 11 kts | 36° |
| 2026-04-27 01:49 | -17.41567 | -66.17199 | 8361 ft | 10 kts | 121° |
| 2026-04-27 01:49 | -17.41618 | -66.17156 | 8361 ft | 9 kts | 152° |
| 2026-04-27 01:49 | -17.41658 | -66.17133 | 8360 ft | 0 kts | 173° |